createdAt,value
2023-04-15T00:00:59.359Z,22.25
2023-04-15T00:03:28.022Z,22.25
2023-04-15T00:05:56.526Z,21.75
2023-04-15T00:08:24.906Z,21.75
2023-04-15T00:10:53.270Z,21.75
2023-04-15T00:13:23.429Z,22.25
2023-04-15T00:15:51.770Z,21.25
2023-04-15T00:18:20.122Z,21.25
2023-04-15T00:20:48.751Z,22.75
2023-04-15T00:23:17.200Z,22.00
2023-04-15T00:25:45.833Z,22.75
2023-04-15T00:28:14.717Z,23.00
2023-04-15T00:30:43.259Z,21.50
2023-04-15T00:33:12.013Z,25.00
2023-04-15T00:35:40.509Z,26.00
2023-04-15T00:38:12.498Z,25.00
2023-04-15T00:40:40.932Z,25.00
2023-04-15T00:43:09.356Z,25.25
2023-04-15T00:45:38.336Z,23.75
2023-04-15T00:48:07.284Z,25.75
2023-04-15T00:50:35.760Z,21.75
2023-04-15T00:53:04.164Z,22.75
2023-04-15T00:55:32.768Z,23.50
2023-04-15T00:58:01.163Z,24.00
2023-04-15T01:00:30.014Z,24.50
2023-04-15T01:02:59.089Z,25.75
2023-04-15T01:05:28.041Z,23.25
2023-04-15T01:07:57.289Z,24.25
2023-04-15T01:10:25.765Z,24.25
2023-04-15T01:12:54.279Z,25.50
2023-04-15T01:15:22.862Z,25.50
2023-04-15T01:17:51.751Z,25.25
2023-04-15T01:20:21.284Z,26.50
2023-04-15T01:22:50.647Z,25.00
2023-04-15T01:25:34.319Z,24.25
2023-04-15T01:28:03.252Z,24.75
2023-04-15T01:30:35.789Z,24.00
2023-04-15T01:33:04.531Z,24.50
2023-04-15T01:35:33.214Z,24.25
2023-04-15T01:38:09.399Z,24.25
2023-04-15T01:40:38.059Z,26.25
2023-04-15T01:43:06.431Z,25.75
2023-04-15T01:45:34.821Z,24.50
2023-04-15T01:48:03.191Z,24.50
2023-04-15T01:50:32.035Z,25.75
2023-04-15T01:53:00.419Z,23.75
2023-04-15T01:55:28.791Z,24.50
2023-04-15T01:57:57.174Z,26.25
2023-04-15T02:00:25.890Z,25.50
2023-04-15T02:02:54.905Z,26.25
2023-04-15T02:05:23.276Z,25.25
2023-04-15T02:07:51.652Z,26.00
2023-04-15T02:10:20.089Z,25.50
2023-04-15T02:12:48.568Z,26.25
2023-04-15T02:15:17.373Z,27.00
2023-04-15T02:17:46.955Z,24.00
2023-04-15T02:20:16.296Z,26.50
2023-04-15T02:22:44.880Z,27.25
2023-04-15T02:25:13.206Z,28.00
2023-04-15T02:27:41.615Z,25.50
2023-04-15T02:30:10.312Z,26.75
2023-04-15T02:32:39.144Z,26.50
2023-04-15T02:35:09.032Z,25.50
2023-04-15T02:37:44.349Z,25.00
2023-04-15T02:40:14.066Z,26.75
2023-04-15T02:42:43.774Z,27.00
2023-04-15T02:45:13.613Z,27.00
2023-04-15T02:47:42.510Z,25.75
2023-04-15T02:50:13.496Z,24.50
2023-04-15T02:52:43.217Z,25.75
2023-04-15T02:55:12.044Z,25.00
2023-04-15T02:57:41.672Z,25.75
2023-04-15T03:00:12.572Z,26.25
2023-04-15T03:02:42.002Z,27.25
2023-04-15T03:05:14.865Z,27.00
2023-04-15T03:07:43.253Z,24.75
2023-04-15T03:10:12.492Z,26.75
2023-04-15T03:12:41.692Z,26.50
2023-04-15T03:15:11.041Z,26.75
2023-04-15T03:17:39.673Z,26.25
2023-04-15T03:20:08.830Z,25.25
2023-04-15T03:22:37.278Z,24.50
2023-04-15T03:25:06.240Z,27.25
2023-04-15T03:27:34.684Z,26.50
2023-04-15T03:30:03.045Z,25.25
2023-04-15T03:32:31.787Z,26.00
2023-04-15T03:35:00.171Z,25.75
2023-04-15T03:37:28.601Z,25.75
2023-04-15T03:39:56.945Z,24.50
2023-04-15T03:42:25.304Z,25.75
2023-04-15T03:44:53.829Z,26.75
2023-04-15T03:47:22.523Z,27.00
2023-04-15T03:49:50.984Z,25.00
2023-04-15T03:52:19.356Z,25.25
2023-04-15T03:54:47.678Z,26.50
2023-04-15T03:57:16.090Z,28.00
2023-04-15T03:59:44.822Z,26.75
2023-04-15T04:02:13.236Z,26.50
2023-04-15T04:04:41.682Z,26.25
2023-04-15T04:07:10.097Z,28.75
2023-04-15T04:09:40.134Z,26.75
2023-04-15T04:12:08.522Z,24.50
2023-04-15T04:14:36.972Z,25.00
2023-04-15T04:17:05.442Z,23.50
2023-04-15T04:19:33.918Z,24.75
2023-04-15T04:22:03.255Z,25.75
2023-04-15T04:24:31.822Z,26.50
2023-04-15T04:27:00.197Z,25.50
2023-04-15T04:29:28.545Z,26.00
2023-04-15T04:31:56.918Z,26.50
2023-04-15T04:34:25.409Z,25.50
2023-04-15T04:36:53.760Z,25.25
2023-04-15T04:39:22.085Z,24.50
2023-04-15T04:41:51.111Z,25.50
2023-04-15T04:44:19.694Z,24.00
2023-04-15T04:46:48.095Z,25.25
2023-04-15T04:49:16.501Z,25.50
2023-04-15T04:51:44.949Z,24.50
2023-04-15T04:54:13.374Z,24.75
2023-04-15T04:56:41.975Z,25.75
2023-04-15T04:59:10.421Z,24.50
2023-04-15T05:01:38.834Z,23.75
2023-04-15T05:04:08.612Z,27.25
2023-04-15T05:06:37.784Z,25.50
2023-04-15T05:09:06.109Z,24.75
2023-04-15T05:11:34.832Z,24.50
2023-04-15T05:14:03.295Z,25.50
2023-04-15T05:16:31.850Z,25.00
2023-04-15T05:19:00.567Z,24.25
2023-04-15T05:21:29.223Z,24.25
2023-04-15T05:23:57.615Z,24.75
2023-04-15T05:26:34.794Z,24.75
2023-04-15T05:29:03.242Z,25.50
2023-04-15T05:31:31.699Z,24.00
2023-04-15T05:34:00.167Z,23.75
2023-04-15T05:36:29.937Z,25.25
2023-04-15T05:38:58.264Z,25.00
2023-04-15T05:41:26.648Z,25.00
2023-04-15T05:43:54.983Z,25.00
2023-04-15T05:46:23.792Z,24.75
2023-04-15T05:48:54.240Z,25.00
2023-04-15T05:51:23.224Z,25.25
2023-04-15T05:53:51.551Z,24.00
2023-04-15T05:56:21.303Z,25.00
2023-04-15T05:58:50.512Z,23.75
2023-04-15T06:01:19.878Z,24.50
2023-04-15T06:03:48.349Z,26.25
2023-04-15T06:06:16.734Z,23.50
2023-04-15T06:08:45.101Z,25.25
2023-04-15T06:11:13.437Z,24.50
2023-04-15T06:13:41.916Z,22.75
2023-04-15T06:16:10.318Z,24.00
2023-04-15T06:18:38.669Z,24.00
2023-04-15T06:21:07.132Z,23.75
2023-04-15T06:23:38.780Z,23.75
2023-04-15T06:26:07.261Z,24.00
2023-04-15T06:28:35.720Z,24.50
2023-04-15T06:31:04.320Z,23.50
2023-04-15T06:33:33.405Z,23.25
2023-04-15T06:36:01.857Z,24.00
2023-04-15T06:38:30.198Z,25.50
2023-04-15T06:40:58.600Z,24.00
2023-04-15T06:43:26.995Z,22.50
2023-04-15T06:45:55.441Z,24.00
2023-04-15T06:48:24.231Z,25.25
2023-04-15T06:50:53.778Z,23.00
2023-04-15T06:53:23.046Z,23.75
2023-04-15T06:55:51.400Z,24.25
2023-04-15T06:58:19.742Z,23.25
2023-04-15T07:00:48.897Z,24.50
2023-04-15T07:03:17.463Z,23.00
2023-04-15T07:05:45.865Z,24.75
2023-04-15T07:08:15.019Z,25.00
2023-04-15T07:10:43.401Z,25.25
2023-04-15T07:13:12.338Z,24.00
2023-04-15T07:15:40.737Z,23.25
2023-04-15T07:18:09.091Z,24.25
2023-04-15T07:20:37.675Z,23.00
2023-04-15T07:23:06.002Z,24.25
2023-04-15T07:25:34.348Z,23.00
2023-04-15T07:28:03.495Z,23.00
2023-04-15T07:30:31.887Z,24.25
2023-04-15T07:33:00.609Z,23.75
2023-04-15T07:35:30.271Z,22.75
2023-04-15T07:37:58.733Z,24.25
2023-04-15T07:40:27.556Z,23.50
2023-04-15T07:42:58.198Z,24.00
2023-04-15T07:45:26.552Z,25.00
2023-04-15T07:47:54.982Z,22.75
2023-04-15T07:50:24.222Z,22.00
2023-04-15T07:52:53.377Z,23.00
2023-04-15T07:55:23.854Z,22.25
2023-04-15T07:57:52.657Z,22.50
2023-04-15T08:00:21.145Z,22.00
2023-04-15T08:02:50.812Z,21.50
2023-04-15T08:05:19.311Z,22.00
2023-04-15T08:07:47.850Z,22.25
2023-04-15T08:10:16.293Z,23.00
2023-04-15T08:12:44.754Z,22.50
2023-04-15T08:15:14.083Z,23.25
2023-04-15T08:17:42.604Z,23.50
2023-04-15T08:20:11.287Z,22.00
2023-04-15T08:22:39.742Z,22.00
2023-04-15T08:25:08.473Z,22.00
2023-04-15T08:27:37.224Z,22.50
2023-04-15T08:30:06.090Z,21.50
2023-04-15T08:32:34.501Z,22.25
2023-04-15T08:35:03.080Z,21.75
2023-04-15T08:37:31.492Z,21.75
2023-04-15T08:39:59.827Z,21.00
2023-04-15T08:42:50.997Z,22.25
2023-04-15T08:45:20.312Z,21.00
2023-04-15T08:47:53.844Z,21.75
2023-04-15T08:50:23.776Z,21.00
2023-04-15T08:52:56.423Z,21.00
2023-04-15T08:55:26.419Z,22.25
2023-04-15T08:57:54.784Z,21.75
2023-04-15T09:00:24.406Z,22.00
2023-04-15T09:02:53.555Z,21.50
2023-04-15T09:05:22.571Z,21.50
2023-04-15T09:07:52.841Z,21.75
2023-04-15T09:10:21.221Z,22.25
2023-04-15T09:12:49.581Z,22.25
2023-04-15T09:15:18.617Z,22.00
2023-04-15T09:17:47.439Z,23.00
2023-04-15T09:20:19.797Z,23.00
2023-04-15T09:22:50.086Z,21.00
2023-04-15T09:25:35.073Z,23.00
2023-04-15T09:28:04.231Z,21.00
2023-04-15T09:30:32.699Z,23.25
2023-04-15T09:33:05.841Z,22.75
2023-04-15T09:35:34.293Z,21.25
2023-04-15T09:38:08.643Z,21.75
2023-04-15T09:40:39.251Z,22.25
2023-04-15T09:43:08.599Z,21.50
2023-04-15T09:45:38.075Z,22.25
2023-04-15T09:48:32.112Z,22.50
2023-04-15T09:51:01.599Z,23.25
2023-04-15T09:53:31.812Z,22.00
2023-04-15T09:56:04.582Z,24.50
2023-04-15T09:58:35.928Z,22.00
2023-04-15T10:01:08.686Z,24.00
2023-04-15T10:03:38.535Z,21.50
2023-04-15T10:06:07.000Z,21.75
2023-04-15T10:08:36.241Z,23.00
2023-04-15T10:11:05.727Z,23.75
2023-04-15T10:13:36.041Z,23.00
2023-04-15T10:16:13.017Z,23.00
2023-04-15T10:18:45.940Z,23.75
2023-04-15T10:21:17.430Z,22.75
2023-04-15T10:23:49.226Z,23.50
2023-04-15T10:26:18.680Z,22.75
2023-04-15T10:28:50.857Z,24.25
2023-04-15T10:31:20.982Z,23.50
2023-04-15T10:33:51.081Z,21.75
2023-04-15T10:36:21.329Z,23.00
2023-04-15T10:38:50.135Z,23.50
2023-04-15T10:41:20.184Z,22.50
2023-04-15T10:43:54.613Z,23.00
2023-04-15T10:46:48.357Z,22.50
2023-04-15T10:49:19.238Z,22.50
2023-04-15T10:51:52.700Z,23.25
2023-04-15T10:54:27.064Z,23.50
2023-04-15T10:57:07.505Z,22.00
2023-04-15T11:00:00.208Z,23.50
2023-04-15T11:02:48.966Z,23.00
2023-04-15T11:05:18.773Z,24.50
2023-04-15T11:07:57.942Z,23.25
2023-04-15T11:10:32.332Z,23.25
2023-04-15T11:13:05.392Z,24.00
2023-04-15T11:15:48.244Z,24.00
2023-04-15T11:18:29.359Z,22.75
2023-04-15T11:21:03.239Z,23.00
2023-04-15T11:23:37.661Z,22.50
2023-04-15T11:26:10.568Z,24.25
2023-04-15T11:28:41.659Z,24.50
2023-04-15T11:31:12.800Z,24.50
2023-04-15T11:34:01.342Z,24.00
2023-04-15T11:36:32.881Z,23.75
2023-04-15T11:39:01.777Z,24.00
2023-04-15T11:41:30.123Z,24.00
2023-04-15T11:43:58.524Z,24.25
2023-04-15T11:46:33.139Z,24.75
2023-04-15T11:49:01.754Z,23.50
2023-04-15T11:51:35.239Z,22.50
2023-04-15T11:54:04.880Z,24.00
2023-04-15T11:56:33.412Z,23.00
2023-04-15T11:59:02.264Z,22.25
2023-04-15T12:01:37.419Z,23.50
2023-04-15T12:04:14.417Z,23.50
2023-04-15T12:06:43.132Z,23.00
2023-04-15T12:09:16.414Z,23.75
2023-04-15T12:11:49.965Z,22.50
2023-04-15T12:14:27.522Z,23.75
2023-04-15T12:16:59.637Z,23.25
2023-04-15T12:19:35.998Z,24.00
2023-04-15T12:22:11.805Z,22.75
2023-04-15T12:24:41.395Z,23.00
2023-04-15T12:27:14.404Z,22.75
2023-04-15T12:29:46.897Z,23.25
2023-04-15T12:32:17.216Z,24.00
2023-04-15T12:34:54.129Z,23.50
2023-04-15T12:37:23.096Z,23.50
2023-04-15T12:39:52.004Z,24.25
2023-04-15T12:42:20.725Z,23.75
2023-04-15T12:44:49.297Z,25.00
2023-04-15T12:47:17.829Z,25.00
2023-04-15T12:49:46.613Z,23.25
2023-04-15T12:52:15.004Z,23.50
2023-04-15T12:54:43.375Z,23.00
2023-04-15T12:57:11.735Z,23.25
2023-04-15T12:59:40.588Z,23.25
2023-04-15T13:02:09.851Z,23.25
2023-04-15T13:04:38.418Z,23.75
2023-04-15T13:07:07.227Z,24.00
2023-04-15T13:09:36.159Z,21.50
2023-04-15T13:12:06.373Z,22.75
2023-04-15T13:14:34.750Z,23.75
2023-04-15T13:17:05.131Z,24.00
2023-04-15T13:19:33.764Z,23.00
2023-04-15T13:22:02.146Z,22.75
2023-04-15T13:24:30.555Z,22.25
2023-04-15T13:27:00.159Z,22.50
2023-04-15T13:29:28.598Z,23.25
2023-04-15T13:31:57.900Z,22.00
2023-04-15T13:34:26.342Z,22.75
2023-04-15T13:36:54.706Z,23.75
2023-04-15T13:39:23.052Z,22.00
2023-04-15T13:41:51.392Z,21.75
2023-04-15T13:44:21.922Z,25.00
2023-04-15T13:46:50.645Z,22.75
2023-04-15T13:49:18.976Z,23.25
2023-04-15T13:51:47.311Z,23.50
2023-04-15T13:54:15.703Z,22.75
2023-04-15T13:56:44.169Z,20.75
2023-04-15T13:59:12.549Z,21.75
2023-04-15T14:01:42.328Z,21.50
2023-04-15T14:04:11.127Z,21.00
2023-04-15T14:06:39.714Z,22.25
2023-04-15T14:09:08.264Z,21.75
2023-04-15T14:11:37.696Z,21.50
2023-04-15T14:14:06.873Z,21.50
2023-04-15T14:16:35.794Z,21.25
2023-04-15T14:19:04.743Z,22.75
2023-04-15T14:21:33.573Z,21.75
2023-04-15T14:24:01.955Z,21.75
2023-04-15T14:26:30.338Z,20.50
2023-04-15T14:28:58.686Z,21.00
2023-04-15T14:31:27.140Z,20.75
2023-04-15T14:33:55.569Z,20.50
2023-04-15T14:36:24.317Z,20.50
2023-04-15T14:38:52.742Z,20.25
2023-04-15T14:41:21.082Z,21.00
2023-04-15T14:43:49.444Z,21.25
2023-04-15T14:46:18.037Z,21.75
2023-04-15T14:48:46.435Z,21.50
2023-04-15T14:51:14.887Z,20.50
2023-04-15T14:53:43.410Z,21.75
2023-04-15T14:56:11.760Z,20.25
2023-04-15T14:58:40.191Z,20.50
2023-04-15T15:01:08.642Z,21.25
2023-04-15T15:03:41.026Z,19.75
2023-04-15T15:06:09.957Z,20.00
2023-04-15T15:08:38.604Z,20.75
2023-04-15T15:11:07.017Z,20.25
2023-04-15T15:13:35.410Z,20.00
2023-04-15T15:16:03.977Z,21.00
2023-04-15T15:18:32.521Z,20.75
2023-04-15T15:21:00.857Z,23.00
2023-04-15T15:23:29.299Z,20.00
2023-04-15T15:25:58.408Z,20.50
2023-04-15T15:28:26.951Z,21.25
2023-04-15T15:30:55.386Z,20.75
2023-04-15T15:33:24.345Z,22.50
2023-04-15T15:35:52.827Z,20.50
2023-04-15T15:38:21.549Z,20.50
2023-04-15T15:40:49.896Z,20.25
2023-04-15T15:43:18.249Z,19.25
2023-04-15T15:45:46.722Z,21.25
2023-04-15T15:48:15.093Z,18.50
2023-04-15T15:50:43.467Z,19.50
2023-04-15T15:53:13.297Z,19.00
2023-04-15T15:55:41.686Z,21.00
2023-04-15T15:58:10.071Z,19.75
2023-04-15T16:00:38.480Z,20.25
2023-04-15T16:03:07.842Z,18.25
2023-04-15T16:05:37.493Z,20.00
2023-04-15T16:08:06.321Z,20.00
2023-04-15T16:10:34.805Z,19.25
2023-04-15T16:13:03.833Z,20.00
2023-04-15T16:15:32.267Z,20.50
2023-04-15T16:18:00.725Z,19.25
2023-04-15T16:20:32.039Z,20.25
2023-04-15T16:23:00.495Z,19.00
2023-04-15T16:25:28.914Z,18.00
2023-04-15T16:28:01.466Z,19.25
2023-04-15T16:30:40.461Z,19.50
2023-04-15T16:33:09.765Z,18.75
2023-04-15T16:35:38.180Z,19.25
2023-04-15T16:38:07.355Z,18.75
2023-04-15T16:40:35.906Z,20.25
2023-04-15T16:43:05.714Z,20.75
2023-04-15T16:45:34.244Z,20.25
2023-04-15T16:48:02.646Z,20.75
2023-04-15T16:50:31.241Z,20.50
2023-04-15T16:52:59.669Z,20.50
2023-04-15T16:55:28.512Z,16.50
2023-04-15T16:58:02.418Z,18.75
2023-04-15T17:00:33.035Z,18.75
2023-04-15T17:03:05.035Z,18.00
2023-04-15T17:05:33.541Z,19.25
2023-04-15T17:08:02.020Z,19.25
2023-04-15T17:10:31.662Z,18.00
2023-04-15T17:13:00.793Z,16.00
2023-04-15T17:15:29.363Z,17.00
2023-04-15T17:17:57.818Z,17.00
2023-04-15T17:20:27.474Z,19.00
2023-04-15T17:22:55.956Z,19.50
2023-04-15T17:25:24.813Z,16.75
2023-04-15T17:27:53.169Z,18.25
2023-04-15T17:30:23.104Z,16.75
2023-04-15T17:32:53.626Z,17.75
2023-04-15T17:35:22.418Z,15.00
2023-04-15T17:37:50.762Z,19.00
2023-04-15T17:40:19.250Z,17.75
2023-04-15T17:42:48.212Z,20.00
2023-04-15T17:45:16.782Z,18.75
2023-04-15T17:47:45.327Z,15.50
2023-04-15T17:50:13.729Z,16.75
2023-04-15T17:52:42.381Z,17.00
2023-04-15T17:55:10.961Z,18.50
2023-04-15T17:57:39.301Z,17.50
2023-04-15T18:00:11.684Z,17.00
2023-04-15T18:02:40.567Z,15.25
2023-04-15T18:05:10.069Z,15.75
2023-04-15T18:07:38.533Z,19.00
2023-04-15T18:10:11.148Z,17.25
2023-04-15T18:12:39.565Z,15.75
2023-04-15T18:15:10.394Z,16.50
2023-04-15T18:17:38.891Z,14.75
2023-04-15T18:20:08.077Z,16.50
2023-04-15T18:22:36.690Z,15.75
2023-04-15T18:25:05.980Z,16.75
2023-04-15T18:27:35.578Z,16.25
2023-04-15T18:30:03.978Z,17.25
2023-04-15T18:32:33.601Z,14.00
2023-04-15T18:35:02.147Z,16.25
2023-04-15T18:37:30.687Z,17.00
2023-04-15T18:39:59.528Z,16.75
2023-04-15T18:42:27.997Z,18.50
2023-04-15T18:44:56.838Z,18.75
2023-04-15T18:47:27.294Z,17.25
2023-04-15T18:49:55.748Z,16.00
2023-04-15T18:52:24.173Z,15.25
2023-04-15T18:54:52.490Z,16.75
2023-04-15T18:57:25.031Z,16.25
2023-04-15T18:59:59.603Z,15.50
2023-04-15T19:02:28.041Z,14.25
2023-04-15T19:04:56.721Z,14.75
2023-04-15T19:07:25.187Z,16.75
2023-04-15T19:09:54.490Z,14.75
2023-04-15T19:12:22.889Z,14.25
2023-04-15T19:14:51.716Z,13.75
2023-04-15T19:17:20.111Z,14.25
2023-04-15T19:19:48.510Z,13.50
2023-04-15T19:22:17.673Z,13.25
2023-04-15T19:24:46.846Z,13.75
2023-04-15T19:27:15.351Z,11.50
2023-04-15T19:29:43.834Z,12.75
2023-04-15T19:32:12.184Z,12.75
2023-04-15T19:34:40.528Z,12.00
2023-04-15T19:37:08.970Z,12.75
2023-04-15T19:39:37.422Z,14.00
2023-04-15T19:42:05.876Z,12.25
2023-04-15T19:44:34.300Z,12.00
2023-04-15T19:47:02.651Z,12.75
2023-04-15T19:49:32.360Z,13.00
2023-04-15T19:52:00.720Z,13.25
2023-04-15T19:54:29.062Z,13.75
2023-04-15T19:56:57.486Z,12.50
2023-04-15T19:59:25.924Z,11.75
2023-04-15T20:01:54.602Z,11.25
2023-04-15T20:04:23.627Z,11.25
2023-04-15T20:06:51.988Z,13.50
2023-04-15T20:09:20.310Z,11.25
2023-04-15T20:12:48.354Z,11.50
2023-04-15T20:14:37.371Z,10.50
2023-04-15T20:17:05.836Z,10.50
2023-04-15T20:19:34.293Z,11.00
2023-04-15T20:22:02.733Z,11.00
2023-04-15T20:24:31.227Z,8.50
2023-04-15T20:26:59.563Z,10.50
2023-04-15T20:29:28.652Z,11.75
2023-04-15T20:31:57.314Z,11.50
2023-04-15T20:34:25.647Z,10.50
2023-04-15T20:36:53.982Z,11.25
2023-04-15T20:39:22.510Z,8.75
2023-04-15T20:41:51.690Z,12.25
2023-04-15T20:44:20.037Z,10.50
2023-04-15T20:46:48.377Z,10.25
2023-04-15T20:49:16.867Z,10.75
2023-04-15T20:51:45.198Z,7.75
2023-04-15T20:54:13.564Z,10.25
2023-04-15T20:56:42.026Z,9.00
2023-04-15T20:59:10.338Z,7.50
2023-04-15T21:01:38.775Z,10.75
2023-04-15T21:04:07.255Z,8.25
2023-04-15T21:06:36.411Z,9.25
2023-04-15T21:09:05.133Z,9.50
2023-04-15T21:11:53.399Z,8.75
2023-04-15T21:14:22.162Z,9.75
2023-04-15T21:16:50.617Z,8.75
2023-04-15T21:19:18.979Z,9.00
2023-04-15T21:21:47.390Z,9.25
2023-04-15T21:24:15.783Z,9.25
2023-04-15T21:26:44.156Z,10.00
2023-04-15T21:29:12.982Z,8.25
2023-04-15T21:31:41.775Z,9.00
2023-04-15T21:34:10.806Z,11.00
2023-04-15T21:36:39.778Z,8.00
2023-04-15T21:39:08.326Z,8.25
2023-04-15T21:41:40.368Z,10.25
2023-04-15T21:44:08.702Z,7.75
2023-04-15T21:46:37.220Z,9.00
2023-04-15T21:49:08.033Z,8.75
2023-04-15T21:51:36.512Z,9.25
2023-04-15T21:54:04.948Z,8.75
2023-04-15T21:56:33.714Z,10.00
2023-04-15T21:59:02.084Z,8.00
2023-04-15T22:01:30.610Z,10.00
2023-04-15T22:03:59.161Z,9.25
2023-04-15T22:06:27.979Z,7.50
2023-04-15T22:09:11.335Z,9.75
2023-04-15T22:11:41.223Z,10.50
2023-04-15T22:14:10.133Z,8.75
2023-04-15T22:16:38.663Z,9.25
2023-04-15T22:19:07.590Z,8.00
2023-04-15T22:21:36.449Z,8.00
2023-04-15T22:24:38.141Z,7.25
2023-04-15T22:26:53.237Z,8.50
2023-04-15T22:29:22.921Z,9.00
2023-04-15T22:31:51.368Z,9.25
2023-04-15T22:34:22.365Z,9.25
2023-04-15T22:36:52.184Z,9.00
2023-04-15T22:39:22.047Z,7.75
2023-04-15T22:41:51.306Z,7.75
2023-04-15T22:44:19.652Z,8.75
2023-04-15T22:46:48.036Z,9.25
2023-04-15T22:49:16.488Z,8.50
2023-04-15T22:51:45.111Z,8.25
2023-04-15T22:54:13.486Z,9.75
2023-04-15T22:56:41.816Z,10.50
2023-04-15T22:59:10.334Z,12.75
2023-04-15T23:01:39.229Z,12.75
2023-04-15T23:04:09.063Z,10.50
2023-04-15T23:06:38.485Z,12.00
2023-04-15T23:09:07.662Z,10.25
2023-04-15T23:11:36.316Z,8.25
2023-04-15T23:14:04.718Z,10.00
2023-04-15T23:16:33.144Z,9.50
2023-04-15T23:19:01.523Z,10.00
2023-04-15T23:21:30.054Z,7.75
2023-04-15T23:23:58.438Z,5.75
2023-04-15T23:26:28.292Z,9.50
2023-04-15T23:28:57.460Z,7.75
2023-04-15T23:31:25.909Z,7.75
2023-04-15T23:33:54.289Z,9.50
2023-04-15T23:36:22.838Z,9.00
2023-04-15T23:38:51.164Z,9.50
2023-04-15T23:41:19.531Z,7.75
2023-04-15T23:43:47.867Z,7.50
2023-04-15T23:46:16.445Z,8.75
2023-04-15T23:48:44.830Z,9.00
2023-04-15T23:51:13.183Z,6.50
2023-04-15T23:53:41.722Z,7.50
2023-04-15T23:56:10.279Z,5.75
2023-04-15T23:58:38.715Z,9.75
